Time;durP1;ratioP1;P1;durP2;ratioP2;P2;SDS_P1;SDS_P2;PMS_P1;PMS_P2;Temp;Humidity;BMP_temperature;BMP_pressure;BME280_temperature;BME280_humidity;BME280_pressure;Samples;Min_cycle;Max_cycle;Signal;HPM_P1;HPM_P2
2021/11/15 00:02:09;;;;;;;118.90;58.70;;;6.70;99.90;;;;;;5017409;28;20238;-90
2021/11/15 00:04:35;;;;;;;122.00;58.90;;;6.70;99.90;;;;;;5016253;28;20183;-90
2021/11/15 00:07:01;;;;;;;108.77;58.13;;;6.70;99.90;;;;;;5024779;28;20299;-93
2021/11/15 00:09:28;;;;;;;115.15;58.58;;;6.70;99.90;;;;;;5015439;28;20424;-90
2021/11/15 00:11:53;;;;;;;114.35;57.90;;;6.70;99.90;;;;;;5015239;28;20206;-93
2021/11/15 00:14:19;;;;;;;120.38;58.72;;;6.70;99.90;;;;;;5015568;28;20241;-93
2021/11/15 00:16:45;;;;;;;110.63;56.57;;;6.70;99.90;;;;;;5015125;28;20238;-93
2021/11/15 00:19:11;;;;;;;122.90;60.33;;;6.70;99.90;;;;;;5015239;28;20210;-92
2021/11/15 00:21:37;;;;;;;119.07;58.73;;;6.70;99.90;;;;;;5017385;28;20662;-91
2021/11/15 00:24:03;;;;;;;115.43;57.33;;;6.70;99.90;;;;;;5016488;28;20329;-91
2021/11/15 00:26:30;;;;;;;111.25;59.33;;;6.60;99.90;;;;;;5016328;28;20214;-92
2021/11/15 00:28:56;;;;;;;119.10;57.65;;;6.60;99.90;;;;;;5015405;28;20270;-90
2021/11/15 00:31:24;;;;;;;120.00;57.08;;;6.60;99.90;;;;;;5015385;28;20203;-93
2021/11/15 00:33:50;;;;;;;123.05;58.80;;;6.60;99.90;;;;;;5015278;28;20194;-93
2021/11/15 00:36:16;;;;;;;113.57;58.45;;;6.60;99.90;;;;;;5014963;28;20223;-90
2021/11/15 00:38:41;;;;;;;121.00;59.00;;;6.60;99.90;;;;;;5014823;28;20241;-90
2021/11/15 00:41:07;;;;;;;118.80;59.87;;;6.60;99.90;;;;;;5015070;28;20407;-90
2021/11/15 00:43:33;;;;;;;117.20;58.17;;;6.60;99.90;;;;;;5015085;28;20578;-92
2021/11/15 00:45:59;;;;;;;126.53;59.40;;;6.60;99.90;;;;;;5016957;28;20434;-93
2021/11/15 00:48:24;;;;;;;112.17;57.43;;;6.60;99.90;;;;;;5031210;28;20190;-93
2021/11/15 00:50:50;;;;;;;115.93;56.17;;;6.60;99.90;;;;;;5029146;28;20179;-90
2021/11/15 00:53:16;;;;;;;123.10;60.47;;;6.60;99.90;;;;;;5015277;28;20266;-91
2021/11/15 00:55:42;;;;;;;127.30;60.40;;;6.60;99.90;;;;;;5018928;28;20952;-89
2021/11/15 00:58:09;;;;;;;113.85;58.55;;;6.60;99.90;;;;;;5017844;28;20203;-90
2021/11/15 01:00:37;;;;;;;115.82;56.25;;;6.60;99.90;;;;;;5020511;28;20245;-92
2021/11/15 01:03:06;;;;;;;102.53;54.63;;;6.60;99.90;;;;;;5019468;28;20641;-92
2021/11/15 01:05:33;;;;;;;112.03;56.42;;;6.60;99.90;;;;;;5018897;28;20179;-93
2021/11/15 01:07:58;;;;;;;132.07;58.63;;;6.60;99.90;;;;;;5014233;28;20203;-92
2021/11/15 01:10:25;;;;;;;112.50;55.17;;;6.60;99.90;;;;;;5014238;28;20648;-91
2021/11/15 01:12:51;;;;;;;119.50;59.45;;;6.60;99.90;;;;;;5014119;28;20199;-93
2021/11/15 01:15:21;;;;;;;111.40;55.40;;;6.60;99.90;;;;;;5013371;28;20266;-90
2021/11/15 01:17:47;;;;;;;115.07;56.35;;;6.60;99.90;;;;;;5014920;28;20332;-90
2021/11/15 01:20:15;;;;;;;116.68;56.33;;;6.60;99.90;;;;;;5024333;28;20179;-92
2021/11/15 01:22:41;;;;;;;112.35;56.97;;;6.60;99.90;;;;;;5018983;28;20730;-92
2021/11/15 01:25:08;;;;;;;122.28;57.92;;;6.60;99.90;;;;;;5015030;28;20699;-89
2021/11/15 01:27:34;;;;;;;108.60;56.97;;;6.60;99.90;;;;;;5032066;28;20214;-91
2021/11/15 01:30:00;;;;;;;126.72;58.97;;;6.50;99.90;;;;;;5017723;28;20171;-90
2021/11/15 01:32:26;;;;;;;110.90;55.30;;;6.50;99.90;;;;;;5014129;28;20553;-90
2021/11/15 01:34:52;;;;;;;107.57;54.30;;;6.50;99.90;;;;;;5013984;28;20406;-92
2021/11/15 01:37:18;;;;;;;109.57;53.10;;;6.50;99.90;;;;;;5015175;28;20436;-92
2021/11/15 01:39:44;;;;;;;113.68;55.53;;;6.50;99.90;;;;;;5013885;28;20186;-90
2021/11/15 01:42:10;;;;;;;114.82;56.65;;;6.50;99.90;;;;;;5014911;28;20210;-91
2021/11/15 01:44:36;;;;;;;111.30;55.63;;;6.50;99.90;;;;;;5015041;28;20546;-90
2021/11/15 01:47:04;;;;;;;119.10;58.22;;;6.50;99.90;;;;;;5015303;28;20443;-93
2021/11/15 01:49:29;;;;;;;113.65;56.03;;;6.50;99.90;;;;;;5013933;28;20183;-93
2021/11/15 01:51:55;;;;;;;105.47;55.23;;;6.40;99.90;;;;;;5014822;28;20191;-90
2021/11/15 01:54:21;;;;;;;99.10;51.90;;;6.40;99.90;;;;;;5013895;28;20486;-93
2021/11/15 01:56:51;;;;;;;111.38;59.17;;;6.40;99.90;;;;;;5026644;28;20195;-93
2021/11/15 01:59:18;;;;;;;116.20;55.33;;;6.40;99.90;;;;;;5017153;28;20197;-92
2021/11/15 02:01:43;;;;;;;105.78;54.80;;;6.30;99.90;;;;;;5013628;28;20285;-92
2021/11/15 02:04:09;;;;;;;102.47;56.20;;;6.30;99.90;;;;;;5013631;28;20306;-90
2021/11/15 02:06:36;;;;;;;108.67;55.17;;;6.30;99.90;;;;;;5014728;28;20199;-90
2021/11/15 02:09:04;;;;;;;115.53;56.88;;;6.30;99.90;;;;;;5015115;28;20262;-90
2021/11/15 02:11:30;;;;;;;110.00;55.72;;;6.30;99.90;;;;;;5013684;28;20199;-90
2021/11/15 02:13:55;;;;;;;106.53;55.50;;;6.30;99.90;;;;;;5013873;28;20210;-93
2021/11/15 02:16:21;;;;;;;104.70;53.30;;;6.30;99.90;;;;;;5016598;28;20186;-92
2021/11/15 02:18:47;;;;;;;118.67;59.23;;;6.30;99.90;;;;;;5017312;28;20179;-90
2021/11/15 02:21:13;;;;;;;109.22;53.20;;;6.30;99.90;;;;;;5016717;28;20196;-92
2021/11/15 02:23:43;;;;;;;106.95;55.40;;;6.30;99.90;;;;;;5017016;28;20222;-90
2021/11/15 02:26:12;;;;;;;107.10;54.38;;;6.30;99.90;;;;;;5017026;28;20660;-91
2021/11/15 02:28:41;;;;;;;104.57;53.70;;;6.30;99.90;;;;;;5020172;28;20178;-91
2021/11/15 02:31:08;;;;;;;105.85;52.20;;;6.30;99.90;;;;;;5020426;28;20210;-90
2021/11/15 02:33:35;;;;;;;112.63;55.08;;;6.30;99.90;;;;;;5020539;28;20591;-92
2021/11/15 02:36:03;;;;;;;99.35;53.60;;;6.30;99.90;;;;;;5041748;28;20301;-90
2021/11/15 02:38:29;;;;;;;103.95;54.28;;;6.30;99.90;;;;;;5050893;28;20175;-90
2021/11/15 02:40:55;;;;;;;102.05;52.10;;;6.20;99.90;;;;;;5032761;28;20171;-90
2021/11/15 02:43:21;;;;;;;102.63;54.07;;;6.20;99.90;;;;;;5056266;28;20305;-90
2021/11/15 02:45:47;;;;;;;92.68;53.53;;;6.20;99.90;;;;;;5039750;28;20174;-90
2021/11/15 02:48:13;;;;;;;109.40;56.35;;;6.20;99.90;;;;;;5022068;28;20222;-90
2021/11/15 02:50:39;;;;;;;92.80;51.50;;;6.20;99.90;;;;;;5021951;28;20174;-91
2021/11/15 02:53:08;;;;;;;103.30;54.07;;;6.20;99.90;;;;;;5021592;28;20213;-89
2021/11/15 02:55:34;;;;;;;114.40;55.95;;;6.10;99.90;;;;;;5020379;28;20826;-93
2021/11/15 02:58:04;;;;;;;97.95;55.45;;;6.20;99.90;;;;;;5020241;28;20207;-90
2021/11/15 03:00:35;;;;;;;98.85;54.95;;;6.20;99.90;;;;;;5020078;28;20186;-92
2021/11/15 03:03:01;;;;;;;93.78;53.17;;;6.20;99.90;;;;;;5019844;28;20224;-89
2021/11/15 03:05:32;;;;;;;94.70;54.80;;;6.20;99.90;;;;;;5037784;28;20663;-90
2021/11/15 03:07:59;;;;;;;111.25;54.38;;;6.10;99.90;;;;;;5038316;28;20435;-91
2021/11/15 03:10:25;;;;;;;108.20;54.67;;;6.20;99.90;;;;;;5025909;28;20178;-92
2021/11/15 03:12:52;;;;;;;106.50;54.33;;;6.10;99.90;;;;;;5037536;28;20204;-89
2021/11/15 03:15:36;;;;;;;109.85;51.75;;;6.10;99.90;;;;;;5019735;28;20181;-89
2021/11/15 03:18:05;;;;;;;103.10;54.10;;;6.10;99.90;;;;;;5037094;28;20324;-90
2021/11/15 03:20:34;;;;;;;104.03;54.78;;;6.10;99.90;;;;;;5019545;28;20175;-90
2021/11/15 03:23:04;;;;;;;93.78;52.85;;;6.10;99.90;;;;;;5019436;28;20218;-92
2021/11/15 03:25:30;;;;;;;94.13;50.30;;;6.10;99.90;;;;;;5019674;28;20279;-93
2021/11/15 03:27:56;;;;;;;99.80;50.70;;;6.10;99.90;;;;;;5019940;28;20210;-92
2021/11/15 03:30:24;;;;;;;97.70;52.20;;;6.10;99.90;;;;;;5019831;28;20375;-89
2021/11/15 03:32:51;;;;;;;101.57;51.80;;;6.10;99.90;;;;;;5037146;28;20202;-93
2021/11/15 03:35:17;;;;;;;91.70;51.22;;;6.10;99.90;;;;;;5019765;28;20257;-93
2021/11/15 03:37:44;;;;;;;89.55;51.58;;;6.10;99.90;;;;;;5020913;28;20256;-92
2021/11/15 03:40:15;;;;;;;87.65;49.92;;;6.00;99.90;;;;;;5024980;28;20186;-92
2021/11/15 03:42:42;;;;;;;100.05;51.80;;;6.00;99.90;;;;;;5019177;28;20226;-90
2021/11/15 03:45:09;;;;;;;91.82;50.30;;;6.00;99.90;;;;;;5019010;28;20179;-93
2021/11/15 03:47:35;;;;;;;95.30;52.50;;;6.00;99.90;;;;;;5019204;28;20207;-91
2021/11/15 03:50:02;;;;;;;89.80;50.72;;;6.00;99.90;;;;;;5019116;28;20179;-89
2021/11/15 03:52:28;;;;;;;98.40;50.42;;;6.00;99.90;;;;;;5036696;28;20202;-91
2021/11/15 03:54:54;;;;;;;94.97;52.10;;;5.90;99.90;;;;;;5019150;28;20258;-91
2021/11/15 03:57:20;;;;;;;90.70;53.30;;;5.90;99.90;;;;;;5019019;28;20259;-92
2021/11/15 03:59:45;;;;;;;91.53;51.27;;;5.90;99.90;;;;;;5036659;28;20424;-89
2021/11/15 04:02:11;;;;;;;93.33;51.00;;;5.90;99.90;;;;;;5018736;28;20210;-93
2021/11/15 04:04:51;;;;;;;102.50;53.35;;;5.90;99.90;;;;;;5018936;28;20183;-90
2021/11/15 04:07:27;;;;;;;98.13;54.70;;;5.90;99.90;;;;;;5018709;28;20217;-90
2021/11/15 04:09:59;;;;;;;103.65;55.70;;;5.90;99.90;;;;;;5018475;28;20190;-92
2021/11/15 04:12:25;;;;;;;93.93;53.58;;;5.90;99.90;;;;;;5020265;28;20209;-90
2021/11/15 04:14:52;;;;;;;102.70;52.53;;;5.90;99.90;;;;;;5046073;28;20218;-90
2021/11/15 04:17:19;;;;;;;102.90;52.05;;;5.80;99.90;;;;;;5022706;28;20242;-92
2021/11/15 04:19:46;;;;;;;103.18;53.95;;;5.80;99.90;;;;;;5037240;28;20171;-91
2021/11/15 04:22:12;;;;;;;114.72;58.60;;;5.80;99.90;;;;;;5019014;28;20210;-90
2021/11/15 04:24:37;;;;;;;101.77;54.40;;;5.80;99.90;;;;;;5042548;28;20197;-91
2021/11/15 04:27:05;;;;;;;97.87;53.83;;;5.80;99.90;;;;;;5036527;28;20245;-92
2021/11/15 04:29:31;;;;;;;105.28;53.15;;;5.80;99.90;;;;;;5018687;28;20471;-89
2021/11/15 04:31:57;;;;;;;92.47;50.78;;;5.70;99.90;;;;;;5035811;28;20568;-90
2021/11/15 04:34:23;;;;;;;86.80;51.20;;;5.80;99.90;;;;;;5018415;28;20190;-92
2021/11/15 04:36:49;;;;;;;91.72;51.15;;;5.70;99.90;;;;;;5018247;28;20194;-92
2021/11/15 04:39:14;;;;;;;79.63;46.50;;;5.70;99.90;;;;;;5018102;28;20587;-91
2021/11/15 04:41:40;;;;;;;95.20;51.47;;;5.70;99.90;;;;;;5035555;28;20213;-92
2021/11/15 04:44:06;;;;;;;91.03;46.80;;;5.70;99.90;;;;;;5018583;28;20687;-90
2021/11/15 04:46:31;;;;;;;85.90;48.70;;;5.60;99.90;;;;;;5017943;28;20202;-90
2021/11/15 04:48:58;;;;;;;83.28;48.58;;;5.60;99.90;;;;;;5018804;28;20429;-92
2021/11/15 04:51:24;;;;;;;85.07;49.17;;;5.50;99.90;;;;;;5032202;28;20178;-90
2021/11/15 04:53:50;;;;;;;81.47;48.00;;;5.50;99.90;;;;;;5032729;28;20182;-89
2021/11/15 04:56:15;;;;;;;80.03;48.43;;;5.40;99.90;;;;;;5034779;28;20203;-90
2021/11/15 04:58:41;;;;;;;92.47;48.97;;;5.40;99.90;;;;;;5028500;28;20666;-92
2021/11/15 05:01:07;;;;;;;85.57;49.60;;;5.30;99.90;;;;;;5048661;28;20204;-90
2021/11/15 05:03:35;;;;;;;97.75;51.30;;;5.30;99.90;;;;;;5043898;28;20547;-90
2021/11/15 05:06:02;;;;;;;82.85;47.50;;;5.30;99.90;;;;;;5043241;28;20254;-92
2021/11/15 05:08:28;;;;;;;83.47;49.50;;;5.30;99.90;;;;;;5035806;28;20266;-91
2021/11/15 05:10:54;;;;;;;90.50;51.43;;;5.20;99.90;;;;;;5035014;28;20201;-92
2021/11/15 05:13:20;;;;;;;96.53;50.90;;;5.20;99.90;;;;;;5035350;28;20186;-92
2021/11/15 05:15:45;;;;;;;102.85;54.63;;;5.20;99.90;;;;;;5017599;28;20405;-91
2021/11/15 05:18:11;;;;;;;130.50;59.13;;;5.20;99.90;;;;;;5035030;28;20234;-89
2021/11/15 05:20:37;;;;;;;104.73;53.43;;;5.20;99.90;;;;;;5034989;28;20186;-90
2021/11/15 05:23:03;;;;;;;123.73;49.60;;;5.20;99.90;;;;;;5035288;28;20221;-90
2021/11/15 05:25:29;;;;;;;93.55;47.25;;;5.20;99.90;;;;;;5035003;28;20407;-90
2021/11/15 05:27:55;;;;;;;79.03;45.40;;;5.10;99.90;;;;;;5043271;28;20198;-90
2021/11/15 05:30:22;;;;;;;87.55;45.00;;;5.10;99.90;;;;;;5040349;28;20727;-92
2021/11/15 05:32:51;;;;;;;81.32;43.08;;;5.10;99.90;;;;;;5039819;28;20206;-90
2021/11/15 05:35:16;;;;;;;136.70;70.15;;;5.00;99.90;;;;;;5034705;28;20167;-90
2021/11/15 05:37:42;;;;;;;97.00;51.53;;;5.00;99.90;;;;;;5017131;28;20211;-92
2021/11/15 05:40:09;;;;;;;98.57;46.83;;;4.90;99.90;;;;;;5017298;28;20628;-90
2021/11/15 05:42:35;;;;;;;93.82;51.10;;;4.80;99.90;;;;;;5017195;28;21062;-91
2021/11/15 05:45:01;;;;;;;93.00;48.10;;;4.80;99.90;;;;;;5017251;28;20198;-90
2021/11/15 05:47:26;;;;;;;85.37;47.17;;;4.80;99.90;;;;;;5040588;28;20432;-92
2021/11/15 05:49:52;;;;;;;97.30;48.47;;;4.80;99.90;;;;;;5035166;28;20951;-90
2021/11/15 05:52:22;;;;;;;97.27;47.17;;;4.70;99.90;;;;;;5023317;28;20206;-90
2021/11/15 05:54:48;;;;;;;99.07;58.88;;;4.70;99.90;;;;;;5034230;28;20189;-90
2021/11/15 05:57:14;;;;;;;111.95;53.45;;;4.70;99.90;;;;;;5049888;28;20288;-92
2021/11/15 05:59:39;;;;;;;95.83;53.77;;;4.70;99.90;;;;;;5035999;28;20773;-89
2021/11/15 06:02:05;;;;;;;101.13;55.70;;;4.70;99.90;;;;;;5046377;28;20450;-90
2021/11/15 06:04:31;;;;;;;99.17;50.57;;;4.70;99.90;;;;;;5027721;28;20213;-92
2021/11/15 06:06:57;;;;;;;96.20;53.17;;;4.70;99.90;;;;;;5038876;28;20565;-90
2021/11/15 06:09:22;;;;;;;95.07;52.70;;;4.70;99.90;;;;;;5039404;28;20186;-89
2021/11/15 06:11:48;;;;;;;92.23;50.10;;;4.60;99.90;;;;;;5020766;28;20198;-91
2021/11/15 06:14:14;;;;;;;104.63;60.53;;;4.60;99.90;;;;;;5061884;28;20182;-89
2021/11/15 06:16:39;;;;;;;114.90;61.57;;;4.60;99.90;;;;;;5032481;28;20758;-89
2021/11/15 06:19:05;;;;;;;119.50;65.60;;;4.70;99.90;;;;;;5047607;28;20235;-90
2021/11/15 06:21:31;;;;;;;115.03;66.20;;;4.60;99.90;;;;;;5044362;28;20237;-90
2021/11/15 06:23:56;;;;;;;103.63;60.67;;;4.70;99.90;;;;;;5030329;28;20222;-92
2021/11/15 06:26:22;;;;;;;102.40;61.47;;;4.70;99.90;;;;;;5020434;28;20257;-91
2021/11/15 06:28:49;;;;;;;111.30;62.03;;;4.70;99.90;;;;;;5027942;28;20690;-89
2021/11/15 06:31:16;;;;;;;92.97;57.92;;;4.80;99.90;;;;;;5033131;28;20682;-92
2021/11/15 06:33:48;;;;;;;101.80;60.58;;;4.80;99.90;;;;;;5038224;28;20197;-90
2021/11/15 06:36:15;;;;;;;93.13;52.20;;;4.90;99.90;;;;;;5038442;28;20248;-92
2021/11/15 06:38:41;;;;;;;89.93;50.97;;;4.90;99.90;;;;;;5025442;28;20252;-90
2021/11/15 06:41:06;;;;;;;88.63;55.33;;;4.90;99.90;;;;;;5037910;28;20170;-90
2021/11/15 06:43:32;;;;;;;88.40;52.53;;;5.00;99.90;;;;;;5038199;28;20717;-92
2021/11/15 06:45:57;;;;;;;85.87;52.27;;;5.00;99.90;;;;;;5020122;28;20213;-92
2021/11/15 06:48:23;;;;;;;73.10;46.57;;;5.00;99.90;;;;;;5053257;28;20186;-91
2021/11/15 06:50:49;;;;;;;94.93;54.85;;;5.00;99.90;;;;;;5042627;28;20597;-90
2021/11/15 06:53:15;;;;;;;98.30;55.87;;;5.10;99.90;;;;;;5055846;28;20200;-92
2021/11/15 06:55:41;;;;;;;103.03;56.37;;;5.10;99.90;;;;;;5034369;28;20813;-91
2021/11/15 06:58:07;;;;;;;88.37;55.30;;;5.20;99.90;;;;;;5051847;28;20442;-92
2021/11/15 07:00:32;;;;;;;77.83;51.10;;;5.20;99.90;;;;;;5019849;28;20187;-89
2021/11/15 07:02:59;;;;;;;78.93;50.20;;;5.30;99.90;;;;;;5022985;28;20628;-91
2021/11/15 07:05:26;;;;;;;75.00;48.30;;;5.50;99.90;;;;;;5040170;28;20171;-92
2021/11/15 07:07:53;;;;;;;75.72;46.60;;;5.60;99.90;;;;;;5023208;28;20203;-92
2021/11/15 07:10:20;;;;;;;67.97;44.08;;;5.70;99.90;;;;;;5034336;28;20182;-90
2021/11/15 07:12:46;;;;;;;77.63;45.30;;;5.90;99.90;;;;;;5028593;28;20201;-89
2021/11/15 07:15:14;;;;;;;72.03;44.90;;;6.00;99.90;;;;;;5055458;28;20761;-89
2021/11/15 07:17:42;;;;;;;69.10;46.53;;;6.10;99.90;;;;;;5054238;28;20234;-90
2021/11/15 07:20:09;;;;;;;66.07;44.75;;;6.20;99.90;;;;;;5036191;28;20178;-89
2021/11/15 07:22:35;;;;;;;65.20;43.67;;;6.40;99.90;;;;;;5047393;28;20194;-91
2021/11/15 07:25:01;;;;;;;70.00;45.72;;;6.50;99.90;;;;;;5058267;28;20170;-92
2021/11/15 07:27:27;;;;;;;67.07;47.08;;;6.60;99.90;;;;;;5036948;28;20201;-93
2021/11/15 07:29:53;;;;;;;82.03;52.93;;;6.80;99.90;;;;;;5057466;28;20170;-92
2021/11/15 07:32:19;;;;;;;98.45;61.28;;;7.00;99.90;;;;;;5039188;28;20443;-92
2021/11/15 07:34:45;;;;;;;93.77;57.30;;;7.10;99.90;;;;;;5056954;28;20192;-90
2021/11/15 07:37:11;;;;;;;89.47;56.33;;;7.20;99.90;;;;;;5054850;28;20205;-90
2021/11/15 07:39:44;;;;;;;86.07;53.55;;;7.20;99.90;;;;;;5030968;28;20810;-89
2021/11/15 07:42:16;;;;;;;93.28;54.67;;;7.20;99.90;;;;;;5052115;28;20205;-89
2021/11/15 07:44:42;;;;;;;86.05;52.53;;;7.20;99.90;;;;;;5033665;28;20671;-88
2021/11/15 07:47:09;;;;;;;97.15;51.83;;;7.20;99.90;;;;;;5053942;28;20579;-88
2021/11/15 07:49:35;;;;;;;80.93;49.47;;;7.20;99.90;;;;;;5036444;28;20646;-91
2021/11/15 07:52:02;;;;;;;82.33;50.53;;;7.20;99.90;;;;;;5036504;28;20296;-88
2021/11/15 07:54:29;;;;;;;87.28;51.78;;;7.30;99.90;;;;;;5054244;28;20394;-89
2021/11/15 07:56:54;;;;;;;87.55;53.08;;;7.30;99.90;;;;;;5041111;28;20186;-90
2021/11/15 07:59:20;;;;;;;97.00;55.50;;;7.40;99.90;;;;;;5059049;28;20189;-88
2021/11/15 08:01:45;;;;;;;83.23;52.80;;;7.40;99.90;;;;;;5027127;28;20236;-89
2021/11/15 08:04:11;;;;;;;96.00;56.87;;;7.40;99.90;;;;;;5021683;28;20202;-89
2021/11/15 08:06:38;;;;;;;96.70;57.30;;;7.50;99.90;;;;;;5028198;28;20213;-90
2021/11/15 08:09:04;;;;;;;124.55;66.15;;;7.40;99.90;;;;;;5031949;28;20251;-89
2021/11/15 08:11:31;;;;;;;142.70;75.97;;;7.40;99.90;;;;;;5016404;28;20202;-91
2021/11/15 08:13:57;;;;;;;122.15;67.05;;;7.50;99.90;;;;;;5051771;28;20801;-88
2021/11/15 08:16:23;;;;;;;98.03;57.75;;;7.60;99.90;;;;;;5048807;28;20194;-91
2021/11/15 08:18:49;;;;;;;100.20;55.73;;;7.70;99.90;;;;;;5019850;28;20213;-89
2021/11/15 08:21:15;;;;;;;96.13;53.80;;;8.00;99.90;;;;;;5034484;28;20209;-89
2021/11/15 08:23:43;;;;;;;95.50;56.17;;;8.20;99.90;;;;;;5055895;28;20225;-88
2021/11/15 08:26:45;;;;;;;79.47;53.65;;;8.50;99.90;;;;;;5027143;28;20182;-88
2021/11/15 08:29:14;;;;;;;97.13;60.70;;;8.70;99.90;;;;;;5026794;28;20554;-91
2021/11/15 08:31:43;;;;;;;103.80;59.92;;;8.90;99.90;;;;;;5025877;28;20270;-88
2021/11/15 08:34:09;;;;;;;85.65;57.72;;;9.00;99.90;;;;;;5027435;28;20182;-89
2021/11/15 08:36:37;;;;;;;98.35;60.13;;;9.10;99.90;;;;;;5045294;28;20205;-91
2021/11/15 08:39:11;;;;;;;99.15;62.03;;;9.10;99.90;;;;;;5024282;28;20659;-89
2021/11/15 08:41:41;;;;;;;115.07;64.18;;;9.20;99.90;;;;;;5029045;28;20536;-91
2021/11/15 08:44:10;;;;;;;100.05;57.45;;;9.30;99.90;;;;;;5030065;28;20212;-91
2021/11/15 08:46:36;;;;;;;93.40;58.00;;;9.30;99.90;;;;;;5025715;28;20206;-91
2021/11/15 08:49:06;;;;;;;99.90;62.03;;;9.40;99.90;;;;;;5017137;28;20652;-89
2021/11/15 08:51:33;;;;;;;91.18;58.53;;;9.60;99.90;;;;;;5026608;28;20613;-89
2021/11/15 08:53:59;;;;;;;99.72;59.33;;;9.90;99.90;;;;;;5040038;28;20216;-89
2021/11/15 08:56:26;;;;;;;116.95;66.68;;;10.20;99.90;;;;;;5034591;28;20201;-89
2021/11/15 08:58:52;;;;;;;99.28;60.67;;;10.50;99.90;;;;;;5040690;28;20182;-92
2021/11/15 09:01:18;;;;;;;95.60;59.40;;;10.90;99.90;;;;;;5026668;28;20684;-87
2021/11/15 09:03:46;;;;;;;100.07;57.77;;;11.30;99.90;;;;;;5049292;28;20973;-89
2021/11/15 09:06:12;;;;;;;93.05;57.20;;;11.80;99.90;;;;;;5029771;28;20453;-91
2021/11/15 09:08:41;;;;;;;83.07;54.22;;;12.10;99.90;;;;;;5053396;28;20189;-91
2021/11/15 09:11:08;;;;;;;89.00;58.92;;;12.30;99.90;;;;;;5045771;28;20321;-89
2021/11/15 09:13:36;;;;;;;87.00;54.70;;;12.50;99.90;;;;;;5039519;28;20698;-89
2021/11/15 09:16:02;;;;;;;88.70;57.35;;;12.60;99.90;;;;;;5038700;28;20231;-91
2021/11/15 09:18:28;;;;;;;88.22;57.90;;;12.70;99.90;;;;;;5016522;28;20235;-91
2021/11/15 09:20:54;;;;;;;82.70;57.07;;;12.80;99.90;;;;;;5025530;28;21018;-89
2021/11/15 09:23:20;;;;;;;86.43;59.20;;;12.90;99.90;;;;;;5023066;28;20806;-92
2021/11/15 09:25:46;;;;;;;85.23;59.00;;;13.10;99.90;;;;;;5029034;28;20174;-90
2021/11/15 09:28:12;;;;;;;84.63;57.53;;;13.40;99.90;;;;;;5026903;28;20288;-88
2021/11/15 09:30:41;;;;;;;82.53;56.10;;;13.70;99.90;;;;;;5017476;28;20183;-92
2021/11/15 09:33:07;;;;;;;77.53;53.63;;;14.00;99.90;;;;;;5025640;28;20461;-89
2021/11/15 09:35:34;;;;;;;83.37;56.10;;;14.10;99.90;;;;;;5022894;28;20411;-88
2021/11/15 09:38:01;;;;;;;83.20;56.27;;;14.10;99.90;;;;;;5029849;28;21010;-91
2021/11/15 09:40:27;;;;;;;82.63;54.77;;;14.20;99.90;;;;;;5025648;28;20443;-89
2021/11/15 09:42:57;;;;;;;79.23;56.83;;;14.20;99.90;;;;;;5036038;28;20477;-89
2021/11/15 09:45:25;;;;;;;75.60;54.13;;;14.40;99.90;;;;;;5041534;28;20198;-89
2021/11/15 09:47:53;;;;;;;77.57;55.60;;;14.40;99.90;;;;;;5020471;28;20524;-89
2021/11/15 09:50:20;;;;;;;78.83;55.93;;;14.50;99.90;;;;;;5004847;28;20997;-92
2021/11/15 09:52:46;;;;;;;80.10;56.87;;;14.60;99.90;;;;;;5033937;28;20426;-91
2021/11/15 09:55:12;;;;;;;80.93;56.33;;;14.50;99.90;;;;;;5019002;28;20411;-89
2021/11/15 09:57:40;;;;;;;82.77;60.70;;;14.50;99.90;;;;;;5022637;28;20542;-89
2021/11/15 10:00:11;;;;;;;77.63;56.60;;;14.40;99.90;;;;;;5016630;28;20202;-91
2021/11/15 10:02:37;;;;;;;87.00;56.80;;;14.40;99.90;;;;;;5025473;28;20524;-92
2021/11/15 10:05:08;;;;;;;92.67;62.60;;;14.40;99.90;;;;;;5023894;28;20440;-91
2021/11/15 10:07:49;;;;;;;92.33;60.27;;;14.30;99.90;;;;;;5022626;28;20904;-89
2021/11/15 10:10:40;;;;;;;92.77;60.67;;;14.00;99.90;;;;;;5018249;28;20436;-92
2021/11/15 10:13:17;;;;;;;85.70;59.43;;;13.80;99.90;;;;;;5030184;28;20486;-92
2021/11/15 10:16:00;;;;;;;89.03;59.83;;;13.60;99.90;;;;;;5026664;28;20415;-88
2021/11/15 10:18:36;;;;;;;89.63;60.00;;;13.50;99.90;;;;;;5012309;28;20519;-89
2021/11/15 10:21:06;;;;;;;95.20;60.10;;;13.20;99.90;;;;;;5025690;28;20440;-93
2021/11/15 10:23:41;;;;;;;98.93;62.33;;;13.00;99.90;;;;;;5021088;28;20533;-90
2021/11/15 10:26:18;;;;;;;96.43;65.10;;;12.80;99.90;;;;;;5021134;28;20834;-92
2021/11/15 10:28:44;;;;;;;109.88;66.72;;;12.50;99.90;;;;;;5025669;28;20402;-90
2021/11/15 10:31:32;;;;;;;103.57;62.20;;;12.40;99.90;;;;;;5022317;28;20183;-91
2021/11/15 10:33:59;;;;;;;105.88;68.00;;;12.20;99.90;;;;;;5026757;28;20866;-91
2021/11/15 10:36:43;;;;;;;97.88;64.90;;;12.10;99.90;;;;;;5019230;28;20306;-90
2021/11/15 10:39:09;;;;;;;99.65;63.92;;;12.00;99.90;;;;;;5028698;28;20210;-89
2021/11/15 10:41:35;;;;;;;94.40;62.10;;;12.00;99.90;;;;;;5030233;28;20211;-92
2021/11/15 10:44:01;;;;;;;94.80;61.00;;;12.00;99.90;;;;;;5021228;28;20938;-91
2021/11/15 10:46:35;;;;;;;105.87;66.67;;;12.00;99.90;;;;;;5023112;28;20242;-90
2021/11/15 10:49:04;;;;;;;111.90;71.57;;;12.00;99.90;;;;;;5023995;28;20554;-89
2021/11/15 10:51:58;;;;;;;101.43;69.60;;;12.00;99.90;;;;;;5026299;28;20666;-91
2021/11/15 10:54:46;;;;;;;101.20;68.55;;;12.00;99.90;;;;;;5013178;28;20298;-89
2021/11/15 10:57:21;;;;;;;99.28;64.10;;;12.10;99.90;;;;;;5019528;28;20774;-93
2021/11/15 11:00:10;;;;;;;101.07;67.32;;;12.10;99.90;;;;;;5021028;28;20179;-89
2021/11/15 11:02:38;;;;;;;104.65;68.22;;;12.10;99.90;;;;;;5023747;28;20207;-90
2021/11/15 11:05:19;;;;;;;100.20;66.87;;;12.10;99.90;;;;;;5025384;28;20190;-91
2021/11/15 11:07:47;;;;;;;100.25;66.95;;;12.10;99.90;;;;;;5032528;28;20428;-89
2021/11/15 11:10:17;;;;;;;94.67;63.13;;;12.20;99.90;;;;;;5027875;28;20190;-90
2021/11/15 11:13:01;;;;;;;92.65;61.20;;;12.20;99.90;;;;;;5025731;28;20452;-89
2021/11/15 11:15:49;;;;;;;95.60;65.47;;;12.20;99.90;;;;;;5025057;28;20266;-91
2021/11/15 11:18:37;;;;;;;100.20;67.03;;;12.30;99.90;;;;;;5044150;28;20470;-90
2021/11/15 11:26:27;;;;;;;89.10;61.58;;;12.40;99.90;;;;;;5037887;28;20544;-90
2021/11/15 11:28:58;;;;;;;94.40;64.40;;;12.50;99.90;;;;;;5020019;28;20328;-92
2021/11/15 11:31:26;;;;;;;94.27;63.70;;;12.50;99.90;;;;;;5026606;28;20438;-92
2021/11/15 11:33:52;;;;;;;94.33;63.83;;;12.60;99.90;;;;;;5027328;28;20773;-91
2021/11/15 11:36:17;;;;;;;101.87;65.60;;;12.70;99.90;;;;;;5039151;28;20454;-89
2021/11/15 11:38:45;;;;;;;102.87;69.93;;;12.70;99.90;;;;;;5036174;28;20953;-91
2021/11/15 11:41:11;;;;;;;98.50;64.63;;;12.80;99.90;;;;;;5040340;28;20197;-92
2021/11/15 11:43:38;;;;;;;96.03;64.50;;;12.80;99.90;;;;;;5045009;28;20645;-91
2021/11/15 11:46:04;;;;;;;93.93;60.67;;;12.90;99.90;;;;;;5060444;28;20423;-91
2021/11/15 11:48:30;;;;;;;98.70;66.20;;;12.90;99.90;;;;;;5046299;28;20529;-90
2021/11/15 11:50:57;;;;;;;89.20;59.40;;;12.90;99.90;;;;;;5028076;28;20179;-89
2021/11/15 11:53:25;;;;;;;96.07;64.50;;;13.00;99.90;;;;;;5048746;28;20420;-92
2021/11/15 11:55:52;;;;;;;100.40;65.03;;;13.10;99.90;;;;;;5027956;28;20405;-92
2021/11/15 11:58:28;;;;;;;93.37;62.47;;;13.10;99.90;;;;;;5029914;28;20413;-92
2021/11/15 12:00:56;;;;;;;95.63;63.87;;;13.20;99.90;;;;;;5041229;28;20442;-90
2021/11/15 12:03:23;;;;;;;90.57;61.10;;;13.20;99.90;;;;;;5027247;28;20565;-92
2021/11/15 12:05:50;;;;;;;84.30;56.30;;;13.30;99.90;;;;;;5044278;28;20510;-91
2021/11/15 12:08:16;;;;;;;82.93;56.63;;;13.30;99.90;;;;;;5023013;28;20463;-93
2021/11/15 12:10:57;;;;;;;82.63;56.70;;;13.40;99.90;;;;;;5036528;28;20577;-92
2021/11/15 12:13:24;;;;;;;72.50;50.03;;;13.40;99.90;;;;;;5021103;28;20443;-91
2021/11/15 12:15:58;;;;;;;75.47;52.27;;;13.50;99.90;;;;;;5020825;28;20541;-93
2021/11/15 12:18:29;;;;;;;75.37;53.07;;;13.50;99.90;;;;;;5017601;28;20479;-90
2021/11/15 12:21:04;;;;;;;69.50;49.23;;;13.50;99.90;;;;;;5015406;28;20433;-92
2021/11/15 12:23:51;;;;;;;66.23;48.63;;;13.60;99.90;;;;;;5026100;28;20480;-90
2021/11/15 12:26:24;;;;;;;65.80;49.03;;;13.60;99.90;;;;;;5016831;28;20448;-89
2021/11/15 12:28:59;;;;;;;62.67;48.00;;;13.60;99.90;;;;;;5031176;28;20444;-90
2021/11/15 12:31:49;;;;;;;71.67;50.77;;;13.60;99.90;;;;;;5018774;28;20478;-90
2021/11/15 12:34:19;;;;;;;61.80;43.73;;;13.60;99.90;;;;;;5023496;28;20455;-91
2021/11/15 12:36:49;;;;;;;57.97;40.17;;;13.60;99.90;;;;;;5027758;28;20447;-91
2021/11/15 12:39:18;;;;;;;41.53;30.10;;;13.60;99.90;;;;;;5023882;28;20420;-90
2021/11/15 12:41:50;;;;;;;41.47;31.57;;;13.50;99.90;;;;;;5019184;28;20463;-91